Time;durP1;ratioP1;P1;durP2;ratioP2;P2;SDS_P1;SDS_P2;PMS_P1;PMS_P2;Temp;Humidity;BMP_temperature;BMP_pressure;BME280_temperature;BME280_humidity;BME280_pressure;Samples;Min_cycle;Max_cycle;Signal;HPM_P1;HPM_P2
2022/01/19 00:02:04;;;;;;;24.95;6.18;;;;;;;;;;5163965;28;20054;-76
2022/01/19 00:04:37;;;;;;;19.70;6.95;;;;;;;;;;5174656;28;20062;-75
2022/01/19 00:07:10;;;;;;;16.63;5.82;;;;;;;;;;5176856;28;20049;-77
2022/01/19 00:09:43;;;;;;;10.98;6.20;;;;;;;;;;5176065;28;20057;-77
2022/01/19 00:12:15;;;;;;;12.60;6.25;;;;;;;;;;5177030;28;20508;-76
2022/01/19 00:14:48;;;;;;;15.85;6.53;;;;;;;;;;5174000;28;20063;-75
2022/01/19 00:17:21;;;;;;;15.43;6.05;;;;;;;;;;5143195;28;20054;-76
2022/01/19 00:19:54;;;;;;;12.88;6.40;;;;;;;;;;5153813;28;20892;-77
2022/01/19 00:22:27;;;;;;;21.83;7.28;;;;;;;;;;5138554;28;20055;-75
2022/01/19 00:25:00;;;;;;;27.70;9.20;;;;;;;;;;5137590;28;21708;-76
2022/01/19 00:27:33;;;;;;;23.52;7.57;;;;;;;;;;5128541;28;20401;-75
2022/01/19 00:30:06;;;;;;;19.33;8.05;;;0.50;99.90;;;;;;5131626;28;20055;-76
2022/01/19 00:32:39;;;;;;;22.08;7.18;;;;;;;;;;5128933;28;20068;-75
2022/01/19 00:35:12;;;;;;;17.92;6.97;;;;;;;;;;5163894;28;20057;-75
2022/01/19 00:37:45;;;;;;;15.82;6.90;;;;;;;;;;5159834;28;20068;-74
2022/01/19 00:40:18;;;;;;;14.93;6.30;;;;;;;;;;5140834;28;20480;-76
2022/01/19 00:42:51;;;;;;;21.17;6.80;;;;;;;;;;5147083;28;21275;-76
2022/01/19 00:45:25;;;;;;;17.52;6.93;;;0.40;99.90;;;;;;5149404;28;20045;-75
2022/01/19 00:47:58;;;;;;;16.85;6.95;;;;;;;;;;5173953;28;20045;-76
2022/01/19 00:50:31;;;;;;;18.08;6.85;;;;;;;;;;5131596;28;20060;-75
2022/01/19 00:53:04;;;;;;;14.23;6.82;;;;;;;;;;5143010;28;20045;-75
2022/01/19 00:55:37;;;;;;;15.23;6.35;;;;;;;;;;5136634;28;20057;-75
2022/01/19 00:58:09;;;;;;;19.17;6.57;;;;;;;;;;5165470;28;20048;-75
2022/01/19 01:00:42;;;;;;;16.23;6.90;;;;;;;;;;5118862;28;20045;-76
2022/01/19 01:03:15;;;;;;;15.75;7.20;;;;;;;;;;5153118;28;20049;-76
2022/01/19 01:05:48;;;;;;;17.60;6.50;;;;;;;;;;5161733;28;20054;-74
2022/01/19 01:08:21;;;;;;;16.93;6.87;;;;;;;;;;5151538;28;20133;-75
2022/01/19 01:10:53;;;;;;;17.05;6.70;;;;;;;;;;5132740;28;20038;-77
2022/01/19 01:15:24;;;;;;;22.77;7.17;;;;;;;;;;5150839;28;20379;-76
2022/01/19 01:16:35;;;;;;;16.92;6.68;;;0.20;99.90;;;;;;5164993;28;20519;-75
2022/01/19 01:19:10;;;;;;;15.98;7.03;;;0.20;99.90;;;;;;5122005;28;20412;-76
2022/01/19 01:21:43;;;;;;;17.35;6.45;;;;;;;;;;5136608;28;20042;-76
2022/01/19 01:24:16;;;;;;;19.97;6.80;;;;;;;;;;5148401;28;20054;-75
2022/01/19 01:26:49;;;;;;;17.33;6.57;;;;;;;;;;5153690;28;20049;-75
2022/01/19 01:29:22;;;;;;;18.02;7.57;;;;;;;;;;5153582;28;20050;-75
2022/01/19 01:31:55;;;;;;;14.85;6.53;;;;;;;;;;5146570;28;20049;-77
2022/01/19 01:34:28;;;;;;;16.83;6.85;;;;;;;;;;5155304;28;20065;-76
2022/01/19 01:37:01;;;;;;;16.37;6.37;;;;;;;;;;5133213;28;20045;-76
2022/01/19 01:39:34;;;;;;;17.75;6.90;;;;;;;;;;5124105;28;20050;-75
2022/01/19 01:42:15;;;;;;;16.77;7.18;;;0.20;99.90;;;;;;5136021;28;20052;-76
2022/01/19 01:44:51;;;;;;;21.08;6.90;;;;;;;;;;5144904;28;20049;-76
2022/01/19 01:47:26;;;;;;;14.65;6.20;;;;;;;;;;5161164;28;20081;-75
2022/01/19 01:55:25;;;;;;;15.50;6.90;;;0.20;99.90;;;;;;5139120;28;20308;-76
2022/01/19 01:57:59;;;;;;;17.30;6.85;;;;;;;;;;5123347;28;20061;-76
2022/01/19 02:00:33;;;;;;;24.42;7.80;;;;;;;;;;5153563;28;22258;-76
2022/01/19 02:03:09;;;;;;;24.55;7.10;;;;;;;;;;5173639;28;20044;-75
2022/01/19 02:06:01;;;;;;;15.23;6.78;;;;;;;;;;5157720;28;20049;-75
2022/01/19 02:08:43;;;;;;;19.65;7.60;;;;;;;;;;5122278;28;20049;-75
2022/01/19 02:21:37;;;;;;;20.23;7.22;;;;;;;;;;5167916;28;20049;-76
2022/01/19 02:22:37;;;;;;;19.45;7.43;;;;;;;;;;5177679;28;20619;-77
2022/01/19 02:25:10;;;;;;;16.63;6.60;;;0.00;99.90;;;;;;5166142;28;20060;-76
2022/01/19 02:28:59;;;;;;;15.43;7.05;;;;;;;;;;5146397;28;20053;-77
2022/01/19 02:31:20;;;;;;;13.63;6.55;;;-0.10;99.90;;;;;;5145074;28;20049;-77
2022/01/19 02:36:36;;;;;;;16.42;6.53;;;;;;;;;;5152313;28;20057;-76
2022/01/19 02:42:02;;;;;;;11.23;6.18;;;;;;;;;;5157577;28;22260;-76
2022/01/19 02:49:55;;;;;;;20.23;6.70;;;-0.30;99.90;;;;;;5162494;28;20053;-77
2022/01/19 02:52:28;;;;;;;14.45;6.30;;;;;;;;;;5151817;28;20582;-76
2022/01/19 02:55:01;;;;;;;19.83;6.67;;;;;;;;;;5170470;28;20042;-75
2022/01/19 02:57:36;;;;;;;19.00;6.78;;;;;;;;;;5140321;28;20053;-75
2022/01/19 03:11:18;;;;;;;;;;;-0.30;99.90;;;;;;5157295;28;20046;-76
2022/01/19 03:13:51;;;;;;;13.83;5.57;;;;;;;;;;5125685;28;21171;-76
2022/01/19 03:16:24;;;;;;;14.85;6.05;;;;;;;;;;5133609;28;20054;-76
2022/01/19 03:18:57;;;;;;;13.48;6.63;;;;;;;;;;5157186;28;20053;-75
2022/01/19 03:21:30;;;;;;;13.80;6.57;;;;;;;;;;5120007;28;20108;-78
2022/01/19 03:24:04;;;;;;;13.07;6.73;;;;;;;;;;5172525;28;20049;-75
2022/01/19 03:26:37;;;;;;;14.00;6.55;;;;;;;;;;5149956;28;20041;-77
2022/01/19 03:29:20;;;;;;;13.85;6.30;;;;;;;;;;5136370;28;20667;-76
2022/01/19 03:31:53;;;;;;;15.15;7.60;;;;;;;;;;5151345;28;20049;-74
2022/01/19 03:34:26;;;;;;;15.07;5.23;;;;;;;;;;5160264;28;20049;-74
2022/01/19 03:37:05;;;;;;;19.52;6.03;;;;;;;;;;5152263;28;20769;-76
2022/01/19 03:39:38;;;;;;;16.58;6.60;;;;;;;;;;5127919;28;20053;-77
2022/01/19 03:42:11;;;;;;;13.80;6.60;;;;;;;;;;5164866;28;20060;-75
2022/01/19 03:44:44;;;;;;;16.27;6.78;;;;;;;;;;5159908;28;20068;-75
2022/01/19 03:47:18;;;;;;;12.63;5.93;;;;;;;;;;5141264;28;20052;-76
2022/01/19 03:49:50;;;;;;;;;;;-0.40;99.90;;;;;;5147944;28;20461;-76
2022/01/19 03:52:23;;;;;;;12.48;6.20;;;;;;;;;;5134862;28;22021;-76
2022/01/19 03:54:56;;;;;;;;;;;-0.40;99.90;;;;;;5151719;28;20057;-75
2022/01/19 03:57:31;;;;;;;18.75;7.18;;;;;;;;;;5141199;28;19921;-76
2022/01/19 04:00:06;;;;;;;21.58;7.63;;;-0.40;99.90;;;;;;5155004;28;20547;-76
2022/01/19 04:02:49;;;;;;;14.52;6.35;;;;;;;;;;5169287;28;20659;-74
2022/01/19 04:05:38;;;;;;;11.88;6.00;;;;;;;;;;5136690;28;20390;-74
2022/01/19 04:08:11;;;;;;;14.10;7.05;;;;;;;;;;5169235;28;20049;-74
2022/01/19 04:10:43;;;;;;;19.10;7.43;;;;;;;;;;5154536;28;20638;-76
2022/01/19 04:13:43;;;;;;;15.35;6.28;;;;;;;;;;5160195;28;20560;-75
2022/01/19 04:16:16;;;;;;;16.88;6.82;;;;;;;;;;5137273;28;20050;-74
2022/01/19 04:18:52;;;;;;;15.47;7.27;;;;;;;;;;5154555;28;20041;-74
2022/01/19 04:21:25;;;;;;;21.50;6.68;;;;;;;;;;5150954;28;21327;-76
2022/01/19 04:23:58;;;;;;;19.10;6.60;;;;;;;;;;5170250;28;20053;-74
2022/01/19 04:26:32;;;;;;;21.13;7.90;;;;;;;;;;5187815;28;20065;-76
2022/01/19 04:29:06;;;;;;;16.58;7.05;;;;;;;;;;5136950;28;20584;-75
2022/01/19 04:31:42;;;;;;;19.20;7.55;;;;;;;;;;5162415;28;20669;-75
2022/01/19 04:34:18;;;;;;;17.90;8.20;;;;;;;;;;5139995;28;20057;-74
2022/01/19 04:43:51;;;;;;;16.13;8.52;;;;;;;;;;5153267;28;20054;-75
2022/01/19 05:13:31;;;;;;;25.45;10.73;;;;;;;;;;5136126;28;20057;-75
2022/01/19 05:16:05;;;;;;;32.33;11.80;;;0.10;99.90;;;;;;5159932;28;20042;-76
2022/01/19 05:18:37;;;;;;;;;;;0.00;99.90;;;;;;5143538;28;20683;-76
2022/01/19 05:21:11;;;;;;;27.92;11.50;;;;;;;;;;5125091;28;20579;-76
2022/01/19 05:24:07;;;;;;;26.33;11.88;;;;;;;;;;5156559;28;20093;-76
2022/01/19 05:26:42;;;;;;;27.02;12.05;;;;;;;;;;5125125;28;20523;-76
2022/01/19 05:29:17;;;;;;;27.40;12.35;;;;;;;;;;5147288;28;20372;-76
2022/01/19 05:31:50;;;;;;;29.30;12.75;;;;;;;;;;5142539;28;20058;-75
2022/01/19 05:34:23;;;;;;;29.33;12.52;;;;;;;;;;5130970;28;20049;-74
2022/01/19 05:37:04;;;;;;;37.72;16.30;;;;;;;;;;5147786;28;20598;-74
2022/01/19 05:40:16;;;;;;;35.67;14.55;;;;;;;;;;5148463;28;20540;-76
2022/01/19 05:42:55;;;;;;;34.55;15.43;;;;;;;;;;5106193;28;20045;-76
2022/01/19 05:45:28;;;;;;;39.70;16.53;;;;;;;;;;5158700;28;20057;-76
2022/01/19 05:48:08;;;;;;;41.53;16.25;;;;;;;;;;5140498;28;20049;-76
2022/01/19 05:50:43;;;;;;;39.83;15.95;;;;;;;;;;5156752;28;20806;-75
2022/01/19 05:53:18;;;;;;;45.67;17.55;;;;;;;;;;5108862;28;20606;-75
2022/01/19 05:55:51;;;;;;;38.73;16.07;;;;;;;;;;5130163;28;20660;-76
2022/01/19 05:58:24;;;;;;;37.67;16.67;;;;;;;;;;5155972;28;20060;-76
2022/01/19 06:01:02;;;;;;;38.22;17.02;;;;;;;;;;5124293;28;20060;-74
2022/01/19 06:03:39;;;;;;;39.88;15.55;;;;;;;;;;5106459;28;20056;-75
2022/01/19 06:06:32;;;;;;;35.95;16.48;;;;;;;;;;5137321;28;20046;-74
2022/01/19 06:09:35;;;;;;;39.38;16.25;;;;;;;;;;5147995;28;20049;-75
2022/01/19 06:12:12;;;;;;;38.03;16.95;;;0.60;99.90;;;;;;5131951;28;20049;-76
2022/01/19 06:14:45;;;;;;;36.83;15.68;;;;;;;;;;5185819;28;20050;-75
2022/01/19 06:17:19;;;;;;;31.90;14.40;;;;;;;;;;5154271;28;20049;-75
2022/01/19 06:19:51;;;;;;;40.25;17.55;;;;;;;;;;5178738;28;20037;-76
2022/01/19 06:22:24;;;;;;;38.30;16.85;;;;;;;;;;5192552;28;20045;-74
2022/01/19 06:24:57;;;;;;;34.58;15.85;;;;;;;;;;5164336;28;20045;-75
2022/01/19 06:27:31;;;;;;;42.53;16.05;;;;;;;;;;5159342;28;20040;-76
2022/01/19 06:30:05;;;;;;;39.50;15.43;;;;;;;;;;5152018;28;20042;-76
2022/01/19 06:32:37;;;;;;;37.60;18.08;;;;;;;;;;5184628;28;20057;-72
2022/01/19 06:35:10;;;;;;;43.73;17.03;;;;;;;;;;5172558;28;20607;-75
2022/01/19 06:37:51;;;;;;;37.15;16.58;;;;;;;;;;5168691;28;20057;-74
2022/01/19 06:40:31;;;;;;;39.80;16.80;;;;;;;;;;5168241;28;20120;-74
2022/01/19 06:43:04;;;;;;;38.03;17.87;;;;;;;;;;5181706;28;20408;-77
2022/01/19 06:45:36;;;;;;;36.78;18.20;;;;;;;;;;5172850;28;20325;-76
2022/01/19 06:48:09;;;;;;;41.97;18.50;;;;;;;;;;5190564;28;20413;-76
2022/01/19 06:50:42;;;;;;;39.47;16.70;;;;;;;;;;5183321;28;20053;-77
2022/01/19 06:53:20;;;;;;;44.25;20.08;;;;;;;;;;5166497;28;20045;-77
2022/01/19 06:56:05;;;;;;;38.67;18.88;;;;;;;;;;5202502;28;20061;-77
2022/01/19 06:58:38;;;;;;;45.07;19.60;;;;;;;;;;5176027;28;20052;-77
2022/01/19 07:01:32;;;;;;;46.25;19.10;;;;;;;;;;5169118;28;20058;-76
2022/01/19 07:04:32;;;;;;;47.85;19.27;;;;;;;;;;5174810;28;20060;-77
2022/01/19 07:07:05;;;;;;;42.27;17.20;;;;;;;;;;5172011;28;20038;-76
2022/01/19 07:09:50;;;;;;;39.92;17.98;;;;;;;;;;5184205;28;20042;-77
2022/01/19 07:12:26;;;;;;;44.58;20.83;;;;;;;;;;5187461;28;20045;-75
2022/01/19 07:14:59;;;;;;;41.95;18.00;;;;;;;;;;5150636;28;20053;-78
2022/01/19 07:17:33;;;;;;;43.83;20.08;;;;;;;;;;5153540;28;20057;-78
2022/01/19 07:20:07;;;;;;;32.40;16.75;;;;;;;;;;5173525;28;20488;-76
2022/01/19 07:22:39;;;;;;;45.35;19.20;;;;;;;;;;5173201;28;20397;-76
2022/01/19 07:25:13;;;;;;;42.80;19.30;;;;;;;;;;5172629;28;20045;-77
2022/01/19 07:27:46;;;;;;;41.23;19.20;;;;;;;;;;5172860;28;20053;-76
2022/01/19 07:30:19;;;;;;;37.55;18.60;;;;;;;;;;5183542;28;20389;-77
2022/01/19 07:32:52;;;;;;;42.27;19.50;;;1.20;99.90;;;;;;5156871;28;20077;-77
2022/01/19 07:35:26;;;;;;;44.00;19.10;;;;;;;;;;5167771;28;20050;-77
2022/01/19 07:38:00;;;;;;;41.88;18.55;;;;;;;;;;5181018;28;20595;-78
2022/01/19 07:40:33;;;;;;;37.45;16.33;;;;;;;;;;5182608;28;20124;-77
2022/01/19 07:43:07;;;;;;;43.30;18.30;;;;;;;;;;5198068;28;20048;-74
2022/01/19 07:45:58;;;;;;;40.55;18.27;;;;;;;;;;5182090;28;20052;-77
2022/01/19 07:48:50;;;;;;;48.10;18.50;;;;;;;;;;5184409;28;20050;-76
2022/01/19 07:51:36;;;;;;;38.50;17.77;;;;;;;;;;5198447;28;20042;-77
2022/01/19 07:54:32;;;;;;;40.33;18.58;;;;;;;;;;5161009;28;20061;-77
2022/01/19 07:57:20;;;;;;;46.15;19.60;;;;;;;;;;5198994;28;20037;-76
2022/01/19 08:00:07;;;;;;;41.92;18.48;;;1.30;99.90;;;;;;5164671;28;20057;-77
2022/01/19 08:02:49;;;;;;;43.50;17.25;;;;;;;;;;5187531;28;20072;-76
2022/01/19 08:05:45;;;;;;;48.90;22.95;;;;;;;;;;5188297;28;20069;-77
2022/01/19 08:08:18;;;;;;;53.80;20.92;;;;;;;;;;5169283;28;20564;-77
2022/01/19 08:10:51;;;;;;;45.22;20.77;;;;;;;;;;5183539;28;20424;-77
2022/01/19 08:13:24;;;;;;;50.60;20.77;;;;;;;;;;5168151;28;20065;-76
2022/01/19 08:16:00;;;;;;;48.00;20.48;;;;;;;;;;5168292;28;20421;-75
2022/01/19 08:18:33;;;;;;;;;;;1.40;99.90;;;;;;5157366;28;20053;-77
2022/01/19 08:21:06;;;;;;;47.60;19.73;;;;;;;;;;5200239;28;19925;-77
2022/01/19 08:23:49;;;;;;;40.73;18.47;;;;;;;;;;5173481;28;20846;-77
2022/01/19 08:26:22;;;;;;;50.72;19.88;;;;;;;;;;5172455;28;20030;-76
2022/01/19 08:29:00;;;;;;;39.28;18.08;;;;;;;;;;5166406;28;20052;-77
2022/01/19 08:31:33;;;;;;;47.00;19.98;;;;;;;;;;5198418;28;20053;-77
2022/01/19 08:34:16;;;;;;;38.83;17.75;;;;;;;;;;5180986;28;20049;-77
2022/01/19 08:37:10;;;;;;;48.97;20.15;;;;;;;;;;5184042;28;20443;-76
2022/01/19 08:39:49;;;;;;;44.17;19.50;;;;;;;;;;5198670;28;20634;-75
2022/01/19 08:42:22;;;;;;;49.50;20.52;;;;;;;;;;5163101;28;20742;-78
2022/01/19 08:44:58;;;;;;;44.78;20.35;;;;;;;;;;5178393;28;20138;-77
2022/01/19 08:47:39;;;;;;;44.85;21.23;;;1.60;99.90;;;;;;5174507;28;20046;-77
2022/01/19 08:50:32;;;;;;;43.13;19.65;;;;;;;;;;5169431;28;20045;-76
2022/01/19 08:53:25;;;;;;;45.95;21.30;;;;;;;;;;5182583;28;20181;-76
2022/01/19 08:56:21;;;;;;;35.03;17.27;;;;;;;;;;5170703;28;20050;-77
2022/01/19 08:58:54;;;;;;;45.27;19.63;;;;;;;;;;5185633;28;20038;-77
2022/01/19 09:01:27;;;;;;;44.38;20.00;;;;;;;;;;5186308;28;20054;-77
2022/01/19 09:04:00;;;;;;;46.72;19.88;;;;;;;;;;5170175;28;20045;-77
2022/01/19 09:06:33;;;;;;;48.63;21.07;;;;;;;;;;5201460;28;20041;-76
2022/01/19 09:09:05;;;;;;;46.90;20.43;;;;;;;;;;5175406;28;20050;-76
2022/01/19 09:11:38;;;;;;;44.73;19.83;;;;;;;;;;5184644;28;20440;-77
2022/01/19 09:14:11;;;;;;;47.20;22.13;;;;;;;;;;5189181;28;20068;-77
2022/01/19 09:16:49;;;;;;;46.67;21.13;;;;;;;;;;5188045;28;20050;-77
2022/01/19 09:19:22;;;;;;;47.92;19.75;;;;;;;;;;5199831;28;20052;-78
2022/01/19 09:21:55;;;;;;;45.40;21.10;;;;;;;;;;5185604;28;20620;-77
2022/01/19 09:24:28;;;;;;;43.47;19.95;;;;;;;;;;5185154;28;20512;-76
2022/01/19 09:27:02;;;;;;;;;;;1.70;99.90;;;;;;5184526;28;20045;-76
2022/01/19 09:29:38;;;;;;;43.22;18.88;;;1.70;99.90;;;;;;5193191;28;19943;-77
2022/01/19 09:32:13;;;;;;;41.13;18.52;;;1.90;99.90;;;;;;5189366;28;20041;-77
2022/01/19 09:34:54;;;;;;;37.75;17.02;;;;;;;;;;5185249;28;20049;-76
2022/01/19 09:37:27;;;;;;;39.95;17.52;;;;;;;;;;5184877;28;20041;-77
2022/01/19 09:40:20;;;;;;;43.65;18.70;;;;;;;;;;5185402;28;20046;-77
2022/01/19 09:42:52;;;;;;;40.10;18.45;;;;;;;;;;5185364;28;20052;-78
2022/01/19 09:45:25;;;;;;;43.05;18.83;;;;;;;;;;5183484;28;20065;-75
2022/01/19 09:47:58;;;;;;;44.92;20.40;;;;;;;;;;5199238;28;20046;-76
2022/01/19 09:50:31;;;;;;;40.78;18.42;;;;;;;;;;5175621;28;20046;-75
2022/01/19 09:53:05;;;;;;;40.17;20.40;;;2.20;99.90;;;;;;5168119;28;20049;-75
2022/01/19 09:55:38;;;;;;;39.13;19.70;;;2.30;99.90;;;;;;5182841;28;20057;-77
2022/01/19 09:58:11;;;;;;;33.38;16.42;;;;;;;;;;5174516;28;20042;-77
2022/01/19 10:00:44;;;;;;;38.38;18.88;;;;;;;;;;5187264;28;20050;-76
2022/01/19 10:03:16;;;;;;;45.30;18.90;;;;;;;;;;5176311;28;20061;-76
2022/01/19 10:06:12;;;;;;;39.58;17.48;;;2.60;99.90;;;;;;5173205;28;20049;-77
2022/01/19 10:08:44;;;;;;;40.25;19.00;;;;;;;;;;5197346;28;20592;-75
2022/01/19 10:11:28;;;;;;;39.55;18.70;;;;;;;;;;5185698;28;20049;-77
2022/01/19 10:17:00;;;;;;;40.85;19.35;;;2.80;99.90;;;;;;5164976;28;20061;-77
2022/01/19 10:19:45;;;;;;;34.50;17.25;;;2.50;99.90;;;;;;5188754;28;20046;-77
2022/01/19 10:22:27;;;;;;;42.25;18.35;;;2.90;99.90;;;;;;5184760;28;20049;-76
2022/01/19 10:25:04;;;;;;;33.90;17.23;;;2.80;99.90;;;;;;5164124;28;20057;-75
2022/01/19 10:27:40;;;;;;;36.00;17.35;;;2.90;99.90;;;;;;5168787;28;20156;-76
2022/01/19 10:30:19;;;;;;;40.95;17.88;;;3.00;99.90;;;;;;5165859;28;20131;-76
2022/01/19 10:32:52;;;;;;;39.97;16.58;;;;;;;;;;5172373;28;20421;-77
2022/01/19 10:35:25;;;;;;;32.22;16.08;;;;;;;;;;5185170;28;20069;-77
2022/01/19 10:38:28;;;;;;;32.78;17.33;;;3.10;99.90;;;;;;5158349;28;20761;-75
2022/01/19 10:41:09;;;;;;;35.03;16.27;;;3.20;99.90;;;;;;5169527;28;20056;-77
2022/01/19 10:43:46;;;;;;;34.08;16.20;;;3.20;99.90;;;;;;5185190;28;20404;-76
2022/01/19 10:46:30;;;;;;;33.90;16.52;;;3.40;99.90;;;;;;5183246;28;20045;-77
2022/01/19 10:49:08;;;;;;;33.05;15.93;;;3.40;99.90;;;;;;5174495;28;20042;-76
2022/01/19 10:51:46;;;;;;;34.85;15.18;;;3.40;99.90;;;;;;5186104;28;20049;-77
2022/01/19 10:54:22;;;;;;;31.38;14.70;;;3.50;99.90;;;;;;5203073;28;20560;-77
2022/01/19 10:56:58;;;;;;;28.20;14.40;;;3.50;99.90;;;;;;5183653;28;20049;-75
2022/01/19 10:59:50;;;;;;;28.42;13.70;;;;;;;;;;5182786;28;20441;-75
2022/01/19 11:02:23;;;;;;;31.80;15.35;;;;;;;;;;5185499;28;20508;-75
2022/01/19 11:04:56;;;;;;;30.17;15.37;;;;;;;;;;5182771;28;20056;-76
2022/01/19 11:07:28;;;;;;;29.80;14.50;;;;;;;;;;5171405;28;20042;-77
2022/01/19 11:10:09;;;;;;;32.58;15.05;;;;;;;;;;5187103;28;20041;-77
2022/01/19 11:12:47;;;;;;;25.17;13.65;;;;;;;;;;5171367;28;20049;-78
2022/01/19 11:15:20;;;;;;;27.60;14.52;;;;;;;;;;5174109;28;20046;-76
2022/01/19 11:17:53;;;;;;;25.00;13.38;;;;;;;;;;5201668;28;20065;-77
2022/01/19 11:20:26;;;;;;;31.92;14.68;;;;;;;;;;5166718;28;20053;-77
2022/01/19 11:22:59;;;;;;;29.83;13.40;;;;;;;;;;5187308;28;20134;-78
2022/01/19 11:25:53;;;;;;;23.88;13.55;;;4.20;99.90;;;;;;5180693;28;20045;-75
2022/01/19 11:28:27;;;;;;;28.02;12.43;;;4.30;99.90;;;;;;5185898;28;20057;-77
2022/01/19 11:31:04;;;;;;;23.80;12.82;;;4.40;99.90;;;;;;5153269;28;20520;-77
2022/01/19 11:33:51;;;;;;;27.05;12.77;;;4.30;99.90;;;;;;5179552;28;20041;-77
2022/01/19 11:36:25;;;;;;;24.35;12.02;;;4.40;99.60;;;;;;5168484;28;20041;-80
2022/01/19 11:39:19;;;;;;;22.20;11.10;;;4.50;98.30;;;;;;5184024;28;20045;-78
2022/01/19 11:41:58;;;;;;;26.25;12.57;;;4.50;98.50;;;;;;5198372;28;20463;-78
2022/01/19 11:44:33;;;;;;;20.38;11.75;;;4.60;97.90;;;;;;5184159;28;20061;-76
2022/01/19 11:47:13;;;;;;;20.63;11.18;;;4.60;97.70;;;;;;5184991;28;20507;-77
2022/01/19 11:49:59;;;;;;;21.08;11.20;;;4.70;96.70;;;;;;5182951;28;20042;-77
2022/01/19 11:52:37;;;;;;;24.10;11.75;;;4.80;96.00;;;;;;5183749;28;20057;-78
2022/01/19 11:55:22;;;;;;;23.67;12.05;;;4.80;95.30;;;;;;5197206;28;20046;-77
2022/01/19 11:58:20;;;;;;;29.58;13.10;;;4.90;94.70;;;;;;5175237;28;20053;-78
2022/01/19 12:00:55;;;;;;;23.95;12.13;;;4.90;94.50;;;;;;5182295;28;20049;-77
2022/01/19 12:03:33;;;;;;;24.98;11.40;;;5.00;94.40;;;;;;5176342;28;20053;-78
2022/01/19 12:06:34;;;;;;;21.17;12.43;;;5.00;94.30;;;;;;5171562;28;20042;-77
2022/01/19 12:09:09;;;;;;;21.50;11.00;;;;;;;;;;5186005;28;20586;-77
2022/01/19 12:11:52;;;;;;;24.42;12.00;;;5.00;94.30;;;;;;5187317;28;20053;-78
2022/01/19 12:14:38;;;;;;;25.27;14.02;;;5.10;94.50;;;;;;5167824;28;20057;-77
2022/01/19 12:17:25;;;;;;;22.40;11.63;;;;;;;;;;5165719;28;20049;-78
2022/01/19 12:20:01;;;;;;;21.20;11.73;;;;;;;;;;5168777;28;20103;-77
2022/01/19 12:22:35;;;;;;;25.08;12.48;;;;;;;;;;5185215;28;20058;-76
2022/01/19 12:25:09;;;;;;;26.73;12.35;;;;;;;;;;5186162;28;20381;-76
2022/01/19 12:27:50;;;;;;;26.05;11.82;;;5.20;93.60;;;;;;5185519;28;20057;-76
2022/01/19 12:30:27;;;;;;;24.42;13.32;;;5.30;93.60;;;;;;5178689;28;20942;-77
2022/01/19 12:33:03;;;;;;;22.40;11.45;;;5.30;93.30;;;;;;5191556;28;20058;-75
2022/01/19 12:35:37;;;;;;;21.67;11.82;;;;;;;;;;5195917;28;20048;-76
2022/01/19 12:38:23;;;;;;;24.27;11.73;;;5.40;92.60;;;;;;5196420;28;20053;-77
2022/01/19 12:40:57;;;;;;;19.48;10.90;;;5.50;92.20;;;;;;5191624;28;20507;-77
2022/01/19 12:43:36;;;;;;;20.30;10.73;;;5.50;91.90;;;;;;5190473;28;20523;-77
2022/01/19 12:46:10;;;;;;;23.00;10.77;;;;;;;;;;5190769;28;20041;-77
2022/01/19 12:48:48;;;;;;;18.92;10.27;;;5.60;91.30;;;;;;5206903;28;20052;-75
2022/01/19 12:51:39;;;;;;;18.58;10.55;;;5.60;91.00;;;;;;5159692;28;20053;-76
2022/01/19 12:54:13;;;;;;;16.95;9.32;;;;;;;;;;5188912;28;20052;-77
2022/01/19 12:56:58;;;;;;;16.33;9.27;;;5.70;89.10;;;;;;5180136;28;20049;-76
2022/01/19 12:59:32;;;;;;;15.02;7.95;;;5.70;88.40;;;;;;5172857;28;20061;-77
2022/01/19 13:02:05;;;;;;;19.70;9.57;;;;;;;;;;5171196;28;20061;-77
2022/01/19 13:04:39;;;;;;;15.65;8.15;;;;;;;;;;5185656;28;20049;-78
2022/01/19 13:07:27;;;;;;;16.73;8.57;;;5.80;86.40;;;;;;5196934;28;20038;-77
2022/01/19 13:10:28;;;;;;;16.33;9.52;;;5.90;85.60;;;;;;5198298;28;20042;-78
2022/01/19 13:13:13;;;;;;;16.30;8.88;;;6.00;86.10;;;;;;5163560;28;20060;-77
2022/01/19 13:15:48;;;;;;;20.50;10.27;;;6.00;85.30;;;;;;5175355;28;20612;-76
2022/01/19 13:18:36;;;;;;;21.65;9.35;;;6.00;85.60;;;;;;5167359;28;20758;-77
2022/01/19 13:21:18;;;;;;;15.73;8.82;;;6.00;85.40;;;;;;5182915;28;20041;-76
2022/01/19 13:24:06;;;;;;;17.33;8.80;;;6.10;84.70;;;;;;5186845;28;20046;-76
2022/01/19 13:26:45;;;;;;;21.58;8.27;;;6.00;84.10;;;;;;5183473;28;20053;-74
2022/01/19 13:29:21;;;;;;;14.48;8.73;;;6.10;84.60;;;;;;5179499;28;20681;-75
2022/01/19 13:31:54;;;;;;;17.08;9.00;;;;;;;;;;5182164;28;20042;-77
2022/01/19 13:34:30;;;;;;;16.77;9.33;;;6.10;84.10;;;;;;5196282;28;20038;-77
2022/01/19 13:37:04;;;;;;;17.58;8.57;;;;;;;;;;5179884;28;20037;-77
2022/01/19 13:39:36;;;;;;;17.08;9.25;;;;;;;;;;5155802;28;20038;-77
2022/01/19 13:42:09;;;;;;;15.20;9.10;;;;;;;;;;5172500;28;20049;-77
2022/01/19 13:44:49;;;;;;;19.50;9.40;;;6.10;84.10;;;;;;5132622;28;20069;-77
2022/01/19 13:47:29;;;;;;;19.30;7.55;;;;;;;;;;5172557;28;20046;-76
2022/01/19 13:50:02;;;;;;;14.13;7.88;;;;;;;;;;5178622;28;20073;-78
2022/01/19 13:52:34;;;;;;;13.23;8.18;;;;;;;;;;5170508;28;20057;-77
2022/01/19 13:55:19;;;;;;;15.18;7.75;;;6.30;83.10;;;;;;5173869;28;20056;-77
2022/01/19 13:58:12;;;;;;;19.08;7.95;;;6.30;82.60;;;;;;5170271;28;20057;-77
2022/01/19 14:00:56;;;;;;;16.38;7.80;;;6.30;82.80;;;;;;5132076;28;20053;-76
2022/01/19 14:03:56;;;;;;;12.77;7.38;;;6.40;83.10;;;;;;5172244;28;20401;-78
2022/01/19 14:06:32;;;;;;;15.30;7.75;;;6.30;82.70;;;;;;5163383;28;20249;-77
2022/01/19 14:09:16;;;;;;;11.82;7.00;;;6.40;82.10;;;;;;5174947;28;20049;-76
2022/01/19 14:12:02;;;;;;;12.60;7.75;;;6.30;81.60;;;;;;5166072;28;20049;-78
2022/01/19 14:14:42;;;;;;;15.55;7.95;;;6.30;81.90;;;;;;5162340;28;20045;-76
2022/01/19 14:17:33;;;;;;;12.30;7.53;;;6.30;81.80;;;;;;5163892;28;20049;-79
2022/01/19 14:20:19;;;;;;;20.13;7.80;;;6.30;80.90;;;;;;5138364;28;20053;-76
2022/01/19 14:23:09;;;;;;;12.60;7.50;;;6.40;81.50;;;;;;5129249;28;20061;-77
2022/01/19 14:25:43;;;;;;;14.10;7.85;;;;;;;;;;5138788;28;20060;-75
2022/01/19 14:28:16;;;;;;;15.60;7.78;;;6.50;81.00;;;;;;5146561;28;20049;-77
2022/01/19 14:31:02;;;;;;;14.70;7.82;;;6.40;80.40;;;;;;5148951;28;20049;-77
2022/01/19 14:33:50;;;;;;;11.98;7.50;;;6.40;81.30;;;;;;5128052;28;20050;-77
2022/01/19 14:36:23;;;;;;;16.63;7.80;;;6.40;81.80;;;;;;5167522;28;20060;-77
2022/01/19 14:38:58;;;;;;;13.18;7.63;;;6.40;81.90;;;;;;5151451;28;20069;-75
2022/01/19 14:41:37;;;;;;;13.25;7.00;;;;;;;;;;5153022;28;20050;-76
2022/01/19 14:44:22;;;;;;;14.85;7.35;;;6.30;82.50;;;;;;5158336;28;20789;-78
2022/01/19 14:47:17;;;;;;;18.20;6.88;;;;;;;;;;5107209;28;20050;-77
2022/01/19 14:49:50;;;;;;;20.23;6.75;;;;;;;;;;5152322;28;20046;-76
2022/01/19 14:52:24;;;;;;;12.27;6.95;;;;;;;;;;5160142;28;20057;-77
2022/01/19 14:54:57;;;;;;;11.55;7.05;;;;;;;;;;5143209;28;20042;-75
2022/01/19 14:57:30;;;;;;;14.93;7.32;;;;;;;;;;5125920;28;20054;-77
2022/01/19 15:00:05;;;;;;;13.97;7.43;;;6.20;83.10;;;;;;5098292;28;20254;-77
2022/01/19 15:02:38;;;;;;;11.65;7.25;;;;;;;;;;5115675;28;20506;-76
2022/01/19 15:05:11;;;;;;;13.20;7.57;;;;;;;;;;5121489;28;20049;-75
2022/01/19 15:07:44;;;;;;;12.70;7.18;;;;;;;;;;5139622;28;20046;-75
2022/01/19 15:10:17;;;;;;;17.35;6.75;;;;;;;;;;5143617;28;20497;-77
2022/01/19 15:12:52;;;;;;;11.27;6.70;;;;;;;;;;5152232;28;20054;-76
2022/01/19 15:15:27;;;;;;;12.30;6.25;;;6.10;82.40;;;;;;5130599;28;20130;-77
2022/01/19 15:18:02;;;;;;;9.43;5.57;;;6.10;82.20;;;;;;5135039;28;20057;-76
2022/01/19 15:20:37;;;;;;;12.93;7.38;;;6.10;81.80;;;;;;5112514;28;20050;-78
2022/01/19 15:23:10;;;;;;;9.25;5.80;;;;;;;;;;5132667;28;20053;-77
2022/01/19 15:25:43;;;;;;;15.50;6.05;;;;;;;;;;5126379;28;20057;-76
2022/01/19 15:28:16;;;;;;;9.93;5.63;;;;;;;;;;5148638;28;20056;-77
2022/01/19 15:30:49;;;;;;;10.10;5.57;;;;;;;;;;5136341;28;20042;-76
2022/01/19 15:33:23;;;;;;;14.75;6.43;;;;;;;;;;5135208;28;20042;-77
2022/01/19 15:35:55;;;;;;;8.35;4.90;;;;;;;;;;5101786;28;20065;-76
2022/01/19 15:38:28;;;;;;;11.48;6.78;;;;;;;;;;5111889;28;20042;-76
2022/01/19 15:41:01;;;;;;;11.73;6.95;;;6.10;78.30;;;;;;5141778;28;20497;-76
2022/01/19 15:43:34;;;;;;;12.35;7.70;;;;;;;;;;5120360;28;20580;-75
2022/01/19 15:46:09;;;;;;;15.35;7.88;;;;;;;;;;5138780;28;20402;-79
2022/01/19 15:49:01;;;;;;;11.05;6.80;;;;;;;;;;5131999;28;20073;-76
2022/01/19 15:51:34;;;;;;;13.73;8.23;;;;;;;;;;5149936;28;20046;-77
2022/01/19 15:54:07;;;;;;;19.30;7.80;;;;;;;;;;5128420;28;20149;-75
2022/01/19 15:56:41;;;;;;;15.10;8.02;;;5.70;80.90;;;;;;5148691;28;20600;-77
2022/01/19 15:59:14;;;;;;;15.30;8.05;;;;;;;;;;5120969;28;20047;-73
2022/01/19 16:01:47;;;;;;;15.10;7.68;;;;;;;;;;5123641;28;20053;-76
2022/01/19 16:04:21;;;;;;;16.58;8.32;;;;;;;;;;5141140;28;20054;-76